createdAt,value
2022-08-11T00:02:02.293Z,3.53
2022-08-11T00:04:37.948Z,3.23
2022-08-11T00:07:26.625Z,3.77
2022-08-11T00:10:39.400Z,4.83
2022-08-11T00:13:08.009Z,3.67
2022-08-11T00:15:45.735Z,3.70
2022-08-11T00:22:34.818Z,3.20
2022-08-11T00:28:53.679Z,3.10
2022-08-11T00:31:32.316Z,3.60
2022-08-11T00:38:01.859Z,3.97
2022-08-11T00:45:05.619Z,6.43
2022-08-11T00:47:32.781Z,3.70
2022-08-11T00:50:29.637Z,3.77
2022-08-11T00:53:54.378Z,3.50
2022-08-11T00:56:46.552Z,3.70
2022-08-11T01:03:54.141Z,3.47
2022-08-11T01:06:58.686Z,5.73
2022-08-11T01:09:53.770Z,4.13
2022-08-11T01:12:58.388Z,3.90
2022-08-11T01:15:58.610Z,3.87
2022-08-11T01:18:56.560Z,3.10
2022-08-11T01:22:19.211Z,3.70
2022-08-11T01:25:04.419Z,4.03
2022-08-11T01:27:51.230Z,3.70
2022-08-11T01:31:02.505Z,3.60
2022-08-11T01:34:10.055Z,3.97
2022-08-11T01:36:56.882Z,3.23
2022-08-11T01:40:13.945Z,3.50
2022-08-11T01:42:59.709Z,3.60
2022-08-11T01:45:55.551Z,4.17
2022-08-11T01:48:57.105Z,3.90
2022-08-11T01:52:33.355Z,4.67
2022-08-11T01:55:21.646Z,3.83
2022-08-11T01:58:14.051Z,4.03
2022-08-11T02:01:00.873Z,4.33
2022-08-11T02:03:45.729Z,4.13
2022-08-11T02:14:42.943Z,3.60
2022-08-11T02:17:59.217Z,3.97
2022-08-11T02:20:56.095Z,3.63
2022-08-11T02:24:06.219Z,3.50
2022-08-11T02:30:42.163Z,3.83
2022-08-11T02:33:24.100Z,3.70
2022-08-11T02:36:42.815Z,4.33
2022-08-11T02:39:20.386Z,5.07
2022-08-11T02:42:33.424Z,3.77
2022-08-11T02:45:12.256Z,7.60
2022-08-11T03:00:19.528Z,4.33
2022-08-11T03:03:13.791Z,6.70
2022-08-11T03:06:19.786Z,5.87
2022-08-11T03:09:23.366Z,4.20
2022-08-11T03:12:20.065Z,4.10
2022-08-11T03:15:07.062Z,3.87
2022-08-11T03:18:14.627Z,3.80
2022-08-11T03:21:10.467Z,3.90
2022-08-11T03:24:06.010Z,3.83
2022-08-11T03:26:58.603Z,3.97
2022-08-11T03:30:03.101Z,3.80
2022-08-11T03:32:58.778Z,4.37
2022-08-11T03:35:26.758Z,4.30
2022-08-11T03:38:06.825Z,7.50
2022-08-11T03:42:04.200Z,8.43
2022-08-11T03:45:01.073Z,6.43
2022-08-11T03:47:55.577Z,9.10
2022-08-11T03:51:07.014Z,7.83
2022-08-11T03:54:25.710Z,6.73
2022-08-11T03:57:55.740Z,6.77
2022-08-11T04:00:39.010Z,6.80
2022-08-11T04:03:23.759Z,5.10
2022-08-11T04:06:38.562Z,5.23
2022-08-11T04:09:24.263Z,5.10
2022-08-11T04:13:00.975Z,5.10
2022-08-11T04:16:11.019Z,5.20
2022-08-11T04:18:50.732Z,8.83
2022-08-11T04:21:37.351Z,5.87
2022-08-11T04:24:39.303Z,5.17
2022-08-11T04:40:06.738Z,5.70
2022-08-11T04:43:13.614Z,7.13
2022-08-11T04:46:36.458Z,5.93
2022-08-11T04:49:38.983Z,7.00
2022-08-11T04:52:56.680Z,8.17
2022-08-11T04:56:05.098Z,6.73
2022-08-11T05:07:09.986Z,8.10
2022-08-11T05:09:51.785Z,5.10
2022-08-11T05:12:49.408Z,5.20
2022-08-11T05:19:21.474Z,5.47
2022-08-11T05:21:57.327Z,6.67
2022-08-11T05:25:10.165Z,6.13
2022-08-11T05:27:51.844Z,7.73
2022-08-11T05:30:20.185Z,5.50
2022-08-11T05:33:09.640Z,4.83
2022-08-11T05:36:01.349Z,4.53
2022-08-11T05:38:35.709Z,4.77
2022-08-11T05:41:04.393Z,4.90
2022-08-11T05:47:38.523Z,5.70
2022-08-11T05:50:15.278Z,6.07
2022-08-11T05:52:49.060Z,6.00
2022-08-11T05:55:25.500Z,5.57
2022-08-11T05:58:04.492Z,6.27
2022-08-11T06:00:42.463Z,7.77
2022-08-11T06:03:10.681Z,4.87
2022-08-11T06:05:51.773Z,5.60
2022-08-11T06:08:59.875Z,5.53
2022-08-11T06:11:43.270Z,8.67
2022-08-11T06:14:14.514Z,5.60
2022-08-11T06:20:23.875Z,4.53
2022-08-11T06:23:36.086Z,5.10
2022-08-11T06:26:10.867Z,5.67
2022-08-11T06:28:41.649Z,4.67
2022-08-11T06:31:18.593Z,4.73
2022-08-11T06:41:58.131Z,4.87
2022-08-11T06:44:40.304Z,4.50
2022-08-11T06:51:08.502Z,4.23
2022-08-11T06:54:03.057Z,4.20
2022-08-11T06:56:41.881Z,4.40
2022-08-11T07:03:34.503Z,4.60
2022-08-11T07:07:13.962Z,4.73
2022-08-11T07:10:26.586Z,5.00
2022-08-11T07:12:58.778Z,8.67
2022-08-11T07:16:11.521Z,5.07
2022-08-11T07:18:27.862Z,6.20
2022-08-11T07:22:00.410Z,5.53
2022-08-11T07:24:04.243Z,6.47
2022-08-11T07:26:33.588Z,4.50
2022-08-11T07:29:03.057Z,4.77
2022-08-11T07:31:37.201Z,4.27
2022-08-11T07:34:23.007Z,5.63
2022-08-11T07:36:55.718Z,5.70
2022-08-11T07:39:43.724Z,4.90
2022-08-11T07:42:15.535Z,4.33
2022-08-11T07:44:46.717Z,4.30
2022-08-11T07:51:24.116Z,3.90
2022-08-11T07:54:03.129Z,4.00
2022-08-11T07:57:09.079Z,6.50
2022-08-11T08:00:00.005Z,5.13
2022-08-11T08:02:24.568Z,5.10
2022-08-11T08:04:59.223Z,4.10
2022-08-11T08:07:27.235Z,3.80
2022-08-11T08:14:08.714Z,6.00
2022-08-11T08:16:38.696Z,3.80
2022-08-11T08:26:58.658Z,4.20
2022-08-11T08:29:36.861Z,4.20
2022-08-11T08:32:04.942Z,4.13
2022-08-11T08:34:50.171Z,4.03
2022-08-11T08:37:46.664Z,4.30
2022-08-11T08:40:13.861Z,3.93
2022-08-11T08:42:57.091Z,4.50
2022-08-11T08:45:26.821Z,4.30
2022-08-11T08:48:04.001Z,4.07
2022-08-11T08:50:52.530Z,4.20
2022-08-11T08:53:26.244Z,4.63
2022-08-11T08:55:55.892Z,4.50
2022-08-11T08:58:25.932Z,3.87
2022-08-11T09:00:58.608Z,4.40
2022-08-11T09:04:04.695Z,4.77
2022-08-11T09:06:15.726Z,4.33
2022-08-11T09:08:45.332Z,4.30
2022-08-11T09:11:54.202Z,4.27
2022-08-11T09:18:04.637Z,4.33
2022-08-11T09:28:47.658Z,4.33
2022-08-11T09:31:18.178Z,4.23
2022-08-11T09:34:41.599Z,4.80
2022-08-11T09:41:27.949Z,4.57
2022-08-11T09:44:15.954Z,4.53
2022-08-11T09:46:51.605Z,4.38
2022-08-11T09:50:02.931Z,3.60
2022-08-11T09:56:40.771Z,4.82
2022-08-11T09:59:09.330Z,4.82
2022-08-11T10:01:49.391Z,3.97
2022-08-11T10:04:24.990Z,3.70
2022-08-11T10:11:02.994Z,3.90
2022-08-11T10:14:04.862Z,3.65
2022-08-11T10:17:18.981Z,3.70
2022-08-11T10:20:02.747Z,4.50
2022-08-11T10:22:35.884Z,3.53
2022-08-11T10:25:05.100Z,3.55
2022-08-11T10:27:40.333Z,3.92
2022-08-11T10:30:20.721Z,4.22
2022-08-11T10:32:58.536Z,3.65
2022-08-11T10:40:38.438Z,3.95
2022-08-11T10:44:03.307Z,3.90
2022-08-11T10:46:30.182Z,3.72
2022-08-11T10:49:37.657Z,3.85
2022-08-11T10:52:05.378Z,4.25
2022-08-11T10:54:35.034Z,3.35
2022-08-11T11:02:18.014Z,3.60
2022-08-11T11:05:30.590Z,3.67
2022-08-11T11:08:21.865Z,3.80
2022-08-11T11:10:49.391Z,3.75
2022-08-11T11:13:17.031Z,3.50
2022-08-11T11:16:39.218Z,3.30
2022-08-11T11:35:58.887Z,3.35
2022-08-11T11:38:28.840Z,3.83
2022-08-11T11:40:56.485Z,4.65
2022-08-11T11:43:43.793Z,3.85
2022-08-11T11:46:11.466Z,3.35
2022-08-11T11:52:48.576Z,3.30
2022-08-11T11:55:16.373Z,3.10
2022-08-11T11:57:58.712Z,8.25
2022-08-11T12:04:41.291Z,8.13
2022-08-11T12:07:10.192Z,3.13
2022-08-11T12:09:38.484Z,3.67
2022-08-11T12:12:06.458Z,3.83
2022-08-11T12:14:34.570Z,3.65
2022-08-11T12:17:02.665Z,3.30
2022-08-11T12:19:35.861Z,4.53
2022-08-11T12:22:03.730Z,3.40
2022-08-11T12:24:34.126Z,3.50
2022-08-11T12:27:17.005Z,3.50
2022-08-11T12:29:54.881Z,3.30
2022-08-11T12:32:27.953Z,4.97
2022-08-11T12:34:55.369Z,3.90
2022-08-11T12:37:32.825Z,3.80
2022-08-11T12:40:43.256Z,3.50
2022-08-11T12:43:22.049Z,3.35
2022-08-11T12:45:59.201Z,3.40
2022-08-11T12:48:59.956Z,3.65
2022-08-11T12:51:28.834Z,3.25
2022-08-11T12:54:27.841Z,3.25
2022-08-11T12:57:13.795Z,3.38
2022-08-11T12:59:42.020Z,3.55
2022-08-11T13:02:17.284Z,3.55
2022-08-11T13:04:46.315Z,3.33
2022-08-11T13:07:18.904Z,3.83
2022-08-11T13:09:47.364Z,4.20
2022-08-11T13:12:16.099Z,4.70
2022-08-11T13:14:44.565Z,4.60
2022-08-11T13:17:13.611Z,3.28
2022-08-11T13:19:48.852Z,3.75
2022-08-11T13:22:20.915Z,3.22
2022-08-11T13:24:51.746Z,3.20
2022-08-11T13:27:19.836Z,3.70
2022-08-11T13:29:49.200Z,6.40
2022-08-11T13:32:18.938Z,4.25
2022-08-11T13:34:48.042Z,3.75
2022-08-11T13:37:16.675Z,3.00
2022-08-11T13:39:45.989Z,3.03
2022-08-11T13:42:16.944Z,3.30
2022-08-11T13:44:45.176Z,3.13
2022-08-11T13:47:16.221Z,4.75
2022-08-11T13:49:45.830Z,4.28
2022-08-11T13:52:16.656Z,3.40
2022-08-11T13:54:48.263Z,3.83
2022-08-11T13:58:18.180Z,3.28
2022-08-11T14:00:09.317Z,3.10
2022-08-11T14:02:42.154Z,4.22
2022-08-11T14:05:15.966Z,3.22
2022-08-11T14:07:53.995Z,3.95
2022-08-11T14:10:28.607Z,3.42
2022-08-11T14:13:02.498Z,3.53
2022-08-11T14:15:34.961Z,3.65
2022-08-11T14:18:11.511Z,3.30
2022-08-11T14:20:43.170Z,3.30
2022-08-11T14:28:29.554Z,2.97
2022-08-11T14:30:04.691Z,3.60
2022-08-11T14:32:32.936Z,3.20
2022-08-11T14:43:05.836Z,3.08
2022-08-11T14:45:57.885Z,3.40
2022-08-11T14:48:21.474Z,5.20
2022-08-11T14:50:48.891Z,3.35
2022-08-11T14:53:18.759Z,3.10
2022-08-11T14:55:47.301Z,3.60
2022-08-11T14:58:24.310Z,3.13
2022-08-11T15:00:58.880Z,3.63
2022-08-11T15:03:30.645Z,3.78
2022-08-11T15:06:01.360Z,3.28
2022-08-11T15:08:39.374Z,3.40
2022-08-11T15:11:07.013Z,4.55
2022-08-11T15:13:34.364Z,3.53
2022-08-11T15:16:05.833Z,3.50
2022-08-11T15:18:35.198Z,3.67
2022-08-11T15:21:02.488Z,3.25
2022-08-11T15:23:31.178Z,4.20
2022-08-11T15:26:03.416Z,3.70
2022-08-11T15:28:39.255Z,3.50
2022-08-11T15:31:06.862Z,3.78
2022-08-11T15:33:39.240Z,3.35
2022-08-11T15:36:10.436Z,3.30
2022-08-11T15:38:55.298Z,3.60
2022-08-11T15:41:46.605Z,5.00
2022-08-11T15:45:00.886Z,3.45
2022-08-11T15:47:28.884Z,3.35
2022-08-11T15:50:11.459Z,3.72
2022-08-11T15:52:52.717Z,3.92
2022-08-11T15:59:43.329Z,8.25
2022-08-11T16:02:18.828Z,3.72
2022-08-11T16:04:48.982Z,3.65
2022-08-11T16:07:20.899Z,3.20
2022-08-11T16:10:02.602Z,3.88
2022-08-11T16:12:47.313Z,3.15
2022-08-11T16:15:14.658Z,3.83
2022-08-11T16:17:56.146Z,3.63
2022-08-11T16:20:27.703Z,3.60
2022-08-11T16:23:03.392Z,4.28
2022-08-11T16:29:32.114Z,4.03
2022-08-11T16:32:01.983Z,4.50
2022-08-11T16:34:30.382Z,4.10
2022-08-11T16:41:00.795Z,3.67
2022-08-11T16:47:17.773Z,3.78
2022-08-11T16:50:07.570Z,3.83
2022-08-11T16:52:35.180Z,3.78
2022-08-11T16:55:02.570Z,3.85
2022-08-11T17:01:33.644Z,3.78
2022-08-11T17:04:12.646Z,5.53
2022-08-11T17:06:47.096Z,3.55
2022-08-11T17:13:44.596Z,4.47
2022-08-11T17:16:16.033Z,5.85
2022-08-11T17:18:57.190Z,3.58
2022-08-11T17:21:39.567Z,5.43
2022-08-11T17:32:55.510Z,5.53
2022-08-11T17:35:33.061Z,3.80
2022-08-11T17:42:48.703Z,4.57
2022-08-11T17:45:22.981Z,3.47
2022-08-11T17:47:51.224Z,3.65
2022-08-11T17:50:20.006Z,4.30
2022-08-11T17:52:48.532Z,4.00
2022-08-11T17:55:17.836Z,4.25
2022-08-11T17:58:05.862Z,3.50
2022-08-11T18:00:34.902Z,3.72
2022-08-11T18:03:05.189Z,3.95
2022-08-11T18:05:35.895Z,3.92
2022-08-11T18:08:13.334Z,4.80
2022-08-11T18:10:43.620Z,3.80
2022-08-11T18:13:24.694Z,3.83
2022-08-11T18:15:55.868Z,3.92
2022-08-11T18:18:23.769Z,3.70
2022-08-11T18:20:52.056Z,3.63
2022-08-11T18:23:40.482Z,4.10
2022-08-11T18:26:17.207Z,3.95
2022-08-11T18:28:51.651Z,3.90
2022-08-11T18:31:23.805Z,3.65
2022-08-11T18:34:06.955Z,3.85
2022-08-11T18:37:05.366Z,3.85
2022-08-11T18:39:42.095Z,3.33
2022-08-11T18:42:19.594Z,3.92
2022-08-11T18:45:02.903Z,4.97
2022-08-11T18:47:33.215Z,3.72
2022-08-11T18:50:05.480Z,11.00
2022-08-11T18:52:35.403Z,4.40
2022-08-11T18:55:08.107Z,4.18
2022-08-11T18:57:49.954Z,6.78
2022-08-11T19:00:27.124Z,4.18
2022-08-11T19:02:57.584Z,8.68
2022-08-11T19:06:35.542Z,6.18
2022-08-11T19:08:18.304Z,4.38
2022-08-11T19:10:47.422Z,4.00
2022-08-11T19:13:15.866Z,3.95
2022-08-11T19:15:45.346Z,5.78
2022-08-11T19:18:23.267Z,4.45
2022-08-11T19:20:54.768Z,4.13
2022-08-11T19:23:35.189Z,3.92
2022-08-11T19:26:05.420Z,4.47
2022-08-11T19:28:36.653Z,4.03
2022-08-11T19:31:07.269Z,4.15
2022-08-11T19:34:00.067Z,3.55
2022-08-11T19:36:26.074Z,3.92
2022-08-11T19:38:55.051Z,4.82
2022-08-11T19:41:52.098Z,3.92
2022-08-11T19:44:16.679Z,7.70
2022-08-11T19:46:45.340Z,4.03
2022-08-11T19:49:14.087Z,6.22
2022-08-11T19:52:20.599Z,3.63
2022-08-11T19:54:50.767Z,3.85
2022-08-11T19:57:20.481Z,4.60
2022-08-11T19:59:49.880Z,4.35
2022-08-11T20:02:18.063Z,3.78
2022-08-11T20:04:45.945Z,4.00
2022-08-11T20:07:14.902Z,3.83
2022-08-11T20:10:05.304Z,4.00
2022-08-11T20:12:36.745Z,3.60
2022-08-11T20:15:06.263Z,4.07
2022-08-11T20:17:40.120Z,4.18
2022-08-11T20:20:10.299Z,4.50
2022-08-11T20:22:40.061Z,3.88
2022-08-11T20:25:08.646Z,7.57
2022-08-11T20:27:39.625Z,4.10
2022-08-11T20:30:07.725Z,4.38
2022-08-11T20:32:39.707Z,3.60
2022-08-11T20:35:09.503Z,4.25
2022-08-11T20:37:40.421Z,3.88
2022-08-11T20:40:09.390Z,3.78
2022-08-11T20:42:38.879Z,4.38
2022-08-11T20:45:10.328Z,3.83
2022-08-11T20:47:59.040Z,4.35
2022-08-11T20:50:28.670Z,6.88
2022-08-11T20:52:57.764Z,5.72
2022-08-11T20:55:51.470Z,5.22
2022-08-11T20:58:18.364Z,4.57
2022-08-11T21:00:51.620Z,4.60
2022-08-11T21:03:35.521Z,4.10
2022-08-11T21:06:09.926Z,4.50
2022-08-11T21:08:42.535Z,3.90
2022-08-11T21:11:12.630Z,4.57
2022-08-11T21:13:46.134Z,4.43
2022-08-11T21:16:26.091Z,4.90
2022-08-11T21:19:06.399Z,4.27
2022-08-11T21:21:45.589Z,3.80
2022-08-11T21:28:16.026Z,4.18
2022-08-11T21:30:44.145Z,4.57
2022-08-11T21:33:13.716Z,5.87
2022-08-11T21:35:45.137Z,4.10
2022-08-11T21:38:15.367Z,5.50
2022-08-11T21:40:43.108Z,3.90
2022-08-11T21:43:13.919Z,3.97
2022-08-11T21:45:43.808Z,3.77
2022-08-11T21:48:13.294Z,4.27
2022-08-11T21:54:51.861Z,4.30
2022-08-11T21:57:20.353Z,3.90
2022-08-11T21:59:57.855Z,4.37
2022-08-11T22:02:27.259Z,3.83
2022-08-11T22:08:54.785Z,4.53
2022-08-11T22:15:32.167Z,3.90
2022-08-11T22:18:02.194Z,4.33
2022-08-11T22:20:32.222Z,4.27
2022-08-11T22:23:01.353Z,3.93
2022-08-11T22:25:38.341Z,4.10
2022-08-11T22:28:06.244Z,4.23
2022-08-11T22:30:34.022Z,3.77
2022-08-11T22:33:03.798Z,4.10
2022-08-11T22:35:33.202Z,3.73
2022-08-11T22:38:01.811Z,4.43
2022-08-11T22:40:29.142Z,5.17
2022-08-11T22:42:56.707Z,5.10
2022-08-11T22:45:23.973Z,5.50
2022-08-11T22:47:52.726Z,10.67
2022-08-11T22:50:21.240Z,10.03
2022-08-11T22:52:52.602Z,12.20
2022-08-11T22:55:21.654Z,13.33
2022-08-11T22:58:01.263Z,8.17
2022-08-11T23:00:30.499Z,9.83
2022-08-11T23:02:59.307Z,10.03
2022-08-11T23:05:27.797Z,9.60
2022-08-11T23:07:57.367Z,6.93
2022-08-11T23:10:26.424Z,5.50
2022-08-11T23:12:55.092Z,5.97
2022-08-11T23:15:24.038Z,8.33
2022-08-11T23:17:51.659Z,6.83
2022-08-11T23:20:35.442Z,5.67
2022-08-11T23:23:09.935Z,5.43
2022-08-11T23:29:51.253Z,5.70
2022-08-11T23:32:25.098Z,5.03
2022-08-11T23:35:54.849Z,5.13
2022-08-11T23:42:39.036Z,5.43
2022-08-11T23:45:09.883Z,5.50
2022-08-11T23:47:50.304Z,5.80
2022-08-11T23:50:19.163Z,5.47
2022-08-11T23:52:47.357Z,5.43
2022-08-11T23:55:15.271Z,5.63
2022-08-11T23:57:49.304Z,4.40
